Bei Facebook empfehlenBei Twitter postenGoogle plusPinterest

Das Wetter im Erzgebirge am 14.09.2016

Wetter und Klima am 14.09.2016 Holzhau im Erzgebirge (630m ü.NN)
Letzte gemessene Temperatur und Uhrzeit der Messung23:45:00 Uhr13.10 °C
Temperatur (Maximum / Höchstwert) und Uhrzeit der Messung15:15:00 Uhr27.20 °C
Temperatur (Minimum / Tiefstwert) und Uhrzeit der Messung07:15:0011.40 °C
Errechneter Absolutwert der Temperaturschwankungen zwischen Tmin und Tmax des Tages15.80 K
Errechnete Tagesmitteltemperatur18.42500 °C
Gesamt - Niederschlag des Tages (in flüssiger Form)0.00 Liter / m²
Luftdruck (Maximum / Höchstwert) und Zeitpunkt der Messung11:45:00 Uhr1015.80 hPa
Luftdruck (Minimum / Tiefstwert) und Zeitpunkt der Messung19:30:00 Uhr1014.60 hPa
Errechneter Absolutwert der Luftdruckschwankungen des Tages1.20 hPa
Höchste gemessene Windgeschwindigkeit und Uhrzeit der Messung23:45:00 Uhr0.00 km/h
Errechnete Windhäufigkeit in Relation zu den Messwerten des Tages0.00000 %
Niedrigste Windkühle (Windchill) und Zeitpunkt der Messung07:15:00 Uhr11.40 °C
Taupunkt (Maximum / Höchstwert) und Uhrzeit der Messung10:00:00 Uhr17.80 °C
Taupunkt (Minimum / Tiefstwert) und Uhrzeit der Messung07:15:009.70 °C
Anzahl der automatisch eingelesenen Messwerte 96

Detaillierte Wetter- und Klima- Messwerte für den 14.09.2016 in Holzhau im Erzgebirge (630m ü.NN)
ZeitTemperaturLuftdruckRel. LuftfeuchteWindWindrichtungWindchillTaupunktNiederschlag l/m²
23:45:0013.10 °C1014.90 hPa84.00 %10.50 °C 
23:30:0013.40 °C1015.00 hPa83.00 %10.60 °C 
23:15:0013.90 °C1015.10 hPa84.00 %11.20 °C 
23:00:0013.90 °C1014.90 hPa83.00 %11.10 °C 
22:45:0014.10 °C1015.00 hPa83.00 %11.30 °C 
22:30:0014.10 °C1015.10 hPa82.00 %11.10 °C 
22:15:0014.40 °C1015.00 hPa81.00 %11.20 °C 
22:00:0014.80 °C1015.00 hPa80.00 %11.40 °C 
21:45:0014.90 °C1015.10 hPa79.00 %11.30 °C 
21:30:0015.30 °C1015.00 hPa78.00 %11.50 °C 
21:15:0015.80 °C1014.90 hPa77.00 %11.80 °C 
21:00:0016.30 °C1015.00 hPa76.00 %12.10 °C 
20:45:0016.80 °C1015.00 hPa74.00 %12.10 °C 
20:30:0017.50 °C1014.80 hPa73.00 %12.60 °C 
20:15:0018.10 °C1014.70 hPa72.00 %13.00 °C 
20:00:0018.60 °C1014.80 hPa72.00 %13.50 °C 
19:45:0019.40 °C1014.70 hPa71.00 %14.00 °C 
19:30:0019.90 °C1014.60 hPa70.00 %14.30 °C 
19:15:0020.60 °C1014.70 hPa69.00 %14.70 °C 
19:00:0021.30 °C1014.70 hPa67.00 %14.90 °C 
18:45:0022.10 °C1014.80 hPa64.00 %15.00 °C 
18:30:0022.90 °C1015.10 hPa63.00 %15.50 °C 
18:15:0023.90 °C1015.00 hPa60.00 %15.70 °C 
18:00:0024.60 °C1014.90 hPa58.00 %15.80 °C 
17:45:0025.20 °C1014.80 hPa55.00 %15.50 °C 
17:30:0025.60 °C1015.00 hPa52.00 %15.00 °C 
17:15:0025.60 °C1015.00 hPa52.00 %15.00 °C 
17:00:0025.90 °C1015.10 hPa52.00 %15.30 °C 
16:45:0026.00 °C1015.00 hPa51.00 %15.10 °C 
16:30:0026.50 °C1015.00 hPa51.00 %15.50 °C 
16:15:0026.80 °C1014.90 hPa50.00 %15.50 °C 
16:00:0026.90 °C1014.80 hPa50.00 %15.60 °C 
15:45:0026.80 °C1014.80 hPa51.00 %15.80 °C 
15:30:0026.90 °C1014.90 hPa50.00 %15.60 °C 
15:15:0027.20 °C1014.80 hPa50.00 %15.90 °C 
15:00:0026.80 °C1014.90 hPa52.00 %16.10 °C 
14:45:0026.30 °C1015.00 hPa52.00 %15.70 °C 
14:30:0026.90 °C1015.20 hPa51.00 %15.90 °C 
14:15:0026.90 °C1015.20 hPa51.00 %15.90 °C 
14:00:0026.40 °C1015.30 hPa53.00 %16.00 °C 
13:45:0026.30 °C1015.50 hPa52.00 %15.70 °C 
13:30:0026.10 °C1015.50 hPa53.00 %15.80 °C 
13:15:0026.00 °C1015.60 hPa53.00 %15.70 °C 
13:00:0025.90 °C1015.70 hPa54.00 %15.90 °C 
12:45:0025.30 °C1015.40 hPa55.00 %15.60 °C 
12:30:0025.10 °C1015.60 hPa56.00 %15.70 °C 
12:15:0024.80 °C1015.50 hPa57.00 %15.70 °C 
12:00:0024.60 °C1015.70 hPa59.00 %16.10 °C 
11:45:0024.80 °C1015.80 hPa60.00 %16.50 °C 
11:30:0024.40 °C1015.70 hPa61.00 %16.40 °C 
11:15:0024.30 °C1015.60 hPa62.00 %16.60 °C 
11:00:0024.00 °C1015.30 hPa63.00 %16.50 °C 
10:45:0023.70 °C1015.40 hPa64.00 %16.50 °C 
10:30:0023.20 °C1015.20 hPa67.00 %16.70 °C 
10:15:0022.60 °C1015.20 hPa72.00 %17.30 °C 
10:00:0021.80 °C1015.30 hPa78.00 %17.80 °C 
09:45:0020.50 °C1015.10 hPa84.00 %17.70 °C 
09:30:0019.10 °C1015.10 hPa87.00 %16.90 °C 
09:15:0017.60 °C1015.00 hPa89.00 %15.80 °C 
09:00:0016.50 °C1015.00 hPa90.00 %14.90 °C 
08:45:0015.30 °C1015.00 hPa90.00 %13.70 °C 
08:30:0014.20 °C1015.00 hPa91.00 %12.80 °C 
08:15:0013.30 °C1015.00 hPa91.00 %11.90 °C 
08:00:0012.60 °C1014.90 hPa90.00 %11.00 °C 
07:45:0011.90 °C1015.00 hPa90.00 %10.30 °C 
07:30:0011.60 °C1015.10 hPa90.00 %10.00 °C 
07:15:0011.40 °C1015.10 hPa89.00 %9.70 °C 
07:00:0011.50 °C1015.20 hPa89.00 %9.80 °C 
06:45:0011.80 °C1015.20 hPa89.00 %10.00 °C 
06:30:0011.80 °C1015.20 hPa89.00 %10.00 °C 
06:15:0011.80 °C1015.40 hPa89.00 %10.00 °C 
06:00:0011.80 °C1015.30 hPa89.00 %10.00 °C 
05:45:0011.80 °C1015.30 hPa88.00 %9.90 °C 
05:30:0011.90 °C1015.20 hPa88.00 %10.00 °C 
05:15:0012.20 °C1015.20 hPa88.00 %10.30 °C 
05:00:0012.30 °C1015.20 hPa87.00 %10.20 °C 
04:45:0012.40 °C1015.20 hPa87.00 %10.30 °C 
04:30:0012.50 °C1015.20 hPa87.00 %10.40 °C 
04:15:0012.90 °C1015.50 hPa87.00 %10.80 °C 
04:00:0012.90 °C1015.50 hPa87.00 %10.80 °C 
03:45:0012.90 °C1015.50 hPa87.00 %10.80 °C 
03:30:0012.90 °C1015.60 hPa87.00 %10.80 °C 
03:15:0012.90 °C1015.30 hPa86.00 %10.60 °C 
03:00:0013.30 °C1015.30 hPa86.00 %11.00 °C 
02:45:0013.30 °C1015.40 hPa86.00 %11.00 °C 
02:30:0013.30 °C1015.50 hPa86.00 %11.00 °C 
02:15:0013.20 °C1015.60 hPa86.00 %10.90 °C 
02:00:0013.20 °C1015.50 hPa86.00 %10.90 °C 
01:45:0013.00 °C1015.40 hPa86.00 %10.70 °C 
01:30:0013.30 °C1015.50 hPa85.00 %10.80 °C 
01:15:0013.60 °C1015.40 hPa86.00 %11.30 °C 
01:00:0013.60 °C1015.50 hPa86.00 %11.30 °C 
00:45:0013.40 °C1015.60 hPa86.00 %11.10 °C 
00:30:0013.40 °C1015.70 hPa86.00 %11.10 °C 
00:15:0013.30 °C1015.60 hPa86.00 %11.00 °C 
00:00:0013.30 °C1015.70 hPa86.00 %11.00 °C 

Permanenter Link zu dieser Seite: Wetter im Erzgebirge am 14.09.2016
Performance-Info: Die Erstellung der Seite / Statistik(en) / Tabelle(n) erforderte 5 Datenbankserver-Abfrage(n) und dauerte 98 Millisekunden. (Dieser Messwert ist von der Gesamt-Auslastung des Servers abhängig.)
Erzgebirge - Wetter | Erzgebirge - Wetter (Mobilgeräte) | Komplette Klimadatenbank